Time;durP1;ratioP1;P1;durP2;ratioP2;P2;SDS_P1;SDS_P2;PMS_P1;PMS_P2;Temp;Humidity;BMP_temperature;BMP_pressure;BME280_temperature;BME280_humidity;BME280_pressure;Samples;Min_cycle;Max_cycle;Signal;HPM_P1;HPM_P2
2022/03/05 00:01:33;;;;;;;;;;;;;;;21.27;40.36;101884.66;7283012;19;152008;-53
2022/03/05 00:04:00;;;;;;;;;;;;;;;21.30;40.95;101881.25;7282947;19;153110;-53
2022/03/05 00:06:27;;;;;;;;;;;;;;;21.31;41.47;101884.91;7279997;19;153823;-54
2022/03/05 00:08:54;;;;;;;;;;;;;;;21.33;41.26;101885.47;7280988;19;151642;-52
2022/03/05 00:11:21;;;;;;;;;;;;;;;21.35;41.22;101876.75;7280150;19;153794;-53
2022/03/05 00:13:47;;;;;;;;;;;;;;;21.35;41.13;101891.63;7288029;19;153414;-53
2022/03/05 00:16:15;;;;;;;;;;;;;;;21.36;41.66;101889.66;7277118;19;152260;-52
2022/03/05 00:18:42;;;;;;;;;;;;;;;21.37;41.40;101888.53;7282067;19;154119;-52
2022/03/05 00:21:09;;;;;;;;;;;;;;;21.37;41.30;101896.97;7282745;19;152202;-53
2022/03/05 00:23:36;;;;;;;;;;;;;;;21.35;41.35;101894.44;7283034;19;153924;-53
2022/03/05 00:26:02;;;;;;;;;;;;;;;21.36;41.38;101898.91;7281669;19;153959;-53
2022/03/05 00:28:29;;;;;;;;;;;;;;;21.37;41.49;101897.78;7282590;19;151847;-53
2022/03/05 00:30:58;;;;;;;;;;;;;;;21.37;41.74;101899.75;7284055;19;153781;-53
2022/03/05 00:33:24;;;;;;;;;;;;;;;21.37;41.71;101899.75;7279295;19;153425;-53
2022/03/05 00:35:51;;;;;;;;;;;;;;;21.36;41.90;101904.53;7286440;19;151569;-53
2022/03/05 00:38:18;;;;;;;;;;;;;;;21.34;41.70;101898.38;7278447;19;152206;-54
2022/03/05 00:40:46;;;;;;;;;;;;;;;21.33;41.81;101893.88;7282504;19;152148;-53
2022/03/05 00:43:14;;;;;;;;;;;;;;;21.35;41.73;101897.22;7281923;19;152883;-53
2022/03/05 00:45:41;;;;;;;;;;;;;;;21.34;41.90;101898.38;7277719;19;153742;-54
2022/03/05 00:48:07;;;;;;;;;;;;;;;21.35;41.88;101897.22;7278986;19;152025;-53
2022/03/05 00:50:34;;;;;;;;;;;;;;;21.34;41.75;101901.19;7282577;19;152909;-52
2022/03/05 00:53:01;;;;;;;;;;;;;;;21.33;41.83;101902.31;7278743;19;153936;-53
2022/03/05 00:55:28;;;;;;;;;;;;;;;21.32;41.69;101896.97;7279922;19;151674;-53
2022/03/05 00:57:54;;;;;;;;;;;;;;;21.33;42.27;101898.66;7286761;19;153259;-53
2022/03/05 01:00:21;;;;;;;;;;;;;;;21.30;42.09;101903.72;7282590;19;151787;-53
2022/03/05 01:02:48;;;;;;;;;;;;;;;21.30;41.91;101908.53;7277312;19;152906;-53
2022/03/05 01:05:15;;;;;;;;;;;;;;;21.27;42.23;101906.28;7281002;19;155138;-53
2022/03/05 01:07:41;;;;;;;;;;;;;;;21.24;42.14;101899.28;7278838;19;151918;-55
2022/03/05 01:10:08;;;;;;;;;;;;;;;21.23;42.31;101899.56;7280753;19;152896;-55
2022/03/05 01:12:35;;;;;;;;;;;;;;;21.22;42.64;101903.50;7280625;19;153699;-53
2022/03/05 01:15:03;;;;;;;;;;;;;;;21.19;42.58;101899.31;7276460;19;152736;-53
2022/03/05 01:17:29;;;;;;;;;;;;;;;21.19;43.16;101898.47;7279443;19;155045;-53
2022/03/05 01:19:56;;;;;;;;;;;;;;;21.17;42.87;101900.72;7285207;19;154119;-53
2022/03/05 01:22:23;;;;;;;;;;;;;;;21.15;42.88;101898.22;7281455;19;152928;-53
2022/03/05 01:24:49;;;;;;;;;;;;;;;21.13;43.08;101906.09;7279320;19;153494;-53
2022/03/05 01:27:18;;;;;;;;;;;;;;;21.12;43.44;101912.78;7279123;19;152133;-54
2022/03/05 01:29:44;;;;;;;;;;;;;;;21.09;43.32;101909.72;7279811;19;152776;-54
2022/03/05 01:32:11;;;;;;;;;;;;;;;21.08;43.50;101913.66;7277331;19;153233;-53
2022/03/05 01:34:38;;;;;;;;;;;;;;;21.06;43.66;101915.94;7281231;19;151511;-53
2022/03/05 01:37:05;;;;;;;;;;;;;;;21.05;43.39;101912.28;7278782;19;153163;-53
2022/03/05 01:39:32;;;;;;;;;;;;;;;21.04;43.56;101906.94;7280210;19;153738;-53
2022/03/05 01:42:01;;;;;;;;;;;;;;;21.03;43.44;101913.72;7287242;19;151707;-53
2022/03/05 01:44:27;;;;;;;;;;;;;;;21.00;43.85;101905.84;7279603;19;154437;-53
2022/03/05 01:46:55;;;;;;;;;;;;;;;21.01;43.81;101910.34;7279598;19;152420;-53
2022/03/05 01:49:21;;;;;;;;;;;;;;;20.97;44.27;101909.25;7278566;19;153623;-54
2022/03/05 01:51:48;;;;;;;;;;;;;;;20.96;44.09;101910.34;7277730;19;154021;-53
2022/03/05 01:54:15;;;;;;;;;;;;;;;20.95;44.06;101914.28;7278633;19;151574;-53
2022/03/05 01:56:44;;;;;;;;;;;;;;;20.90;44.22;101912.34;7276817;19;151812;-53
2022/03/05 01:59:11;;;;;;;;;;;;;;;20.92;44.27;101914.88;7276469;19;153930;-53
2022/03/05 02:01:38;;;;;;;;;;;;;;;20.89;44.33;101902.25;7292275;19;152191;-53
2022/03/05 02:04:05;;;;;;;;;;;;;;;20.86;44.19;101908.44;7280263;19;153332;-52
2022/03/05 02:06:32;;;;;;;;;;;;;;;20.86;44.51;101914.06;7286386;19;152340;-53
2022/03/05 02:08:59;;;;;;;;;;;;;;;20.81;44.55;101909.28;7284974;19;152650;-53
2022/03/05 02:11:26;;;;;;;;;;;;;;;20.80;44.50;101915.22;7282970;19;153744;-53
2022/03/05 02:13:54;;;;;;;;;;;;;;;20.80;44.16;101915.22;7282823;19;151915;-54
2022/03/05 02:16:22;;;;;;;;;;;;;;;20.78;44.33;101914.66;7283816;19;153284;-53
2022/03/05 02:18:50;;;;;;;;;;;;;;;20.75;44.50;101906.81;7282142;19;153883;-53
2022/03/05 02:21:17;;;;;;;;;;;;;;;20.74;44.49;101905.97;7283378;19;151919;-53
2022/03/05 02:23:44;;;;;;;;;;;;;;;20.75;44.61;101912.44;7291464;19;153410;-53
2022/03/05 02:26:11;;;;;;;;;;;;;;;20.73;44.43;101911.84;7283099;19;151518;-52
2022/03/05 02:28:37;;;;;;;;;;;;;;;20.72;44.60;101913.81;7286060;19;152794;-52
2022/03/05 02:31:04;;;;;;;;;;;;;;;20.70;44.62;101912.44;7281415;19;154074;-54
2022/03/05 02:33:31;;;;;;;;;;;;;;;20.65;44.25;101910.50;7283464;19;151646;-53
2022/03/05 02:35:58;;;;;;;;;;;;;;;20.65;44.59;101910.50;7284280;19;153506;-53
2022/03/05 02:38:24;;;;;;;;;;;;;;;20.62;44.43;101907.41;7284073;19;153433;-53
2022/03/05 02:40:52;;;;;;;;;;;;;;;20.60;44.58;101901.22;7285112;19;151795;-53
2022/03/05 02:43:21;;;;;;;;;;;;;;;20.63;44.57;101906.28;7285317;19;153200;-52
2022/03/05 02:45:48;;;;;;;;;;;;;;;20.56;44.19;101911.34;7288995;19;153166;-53
2022/03/05 02:48:15;;;;;;;;;;;;;;;20.51;44.24;101909.41;7281841;19;153249;-53
2022/03/05 02:50:42;;;;;;;;;;;;;;;20.50;44.39;101904.06;7283396;19;153874;-53
2022/03/05 02:53:09;;;;;;;;;;;;;;;20.45;44.49;101910.53;7279904;19;152269;-55
2022/03/05 02:55:36;;;;;;;;;;;;;;;20.43;44.40;101907.19;7284614;19;152896;-53
2022/03/05 02:58:03;;;;;;;;;;;;;;;20.42;44.68;101908.31;7280601;19;154490;-53
2022/03/05 03:00:31;;;;;;;;;;;;;;;20.39;44.46;101906.06;7283214;19;151572;-52
2022/03/05 03:02:58;;;;;;;;;;;;;;;20.35;44.74;101902.97;7284184;19;153566;-53
2022/03/05 03:05:25;;;;;;;;;;;;;;;20.35;44.24;101899.34;7283856;19;153139;-53
2022/03/05 03:07:52;;;;;;;;;;;;;;;20.34;44.63;101908.91;7289610;19;151707;-53
2022/03/05 03:10:18;;;;;;;;;;;;;;;20.31;44.63;101907.47;7283919;19;154172;-53
2022/03/05 03:12:45;;;;;;;;;;;;;;;20.28;44.38;101905.22;7281801;19;151793;-53
2022/03/05 03:15:13;;;;;;;;;;;;;;;20.27;44.33;101908.28;7284270;19;153724;-53
2022/03/05 03:17:43;;;;;;;;;;;;;;;20.24;44.36;101912.53;7281049;19;153426;-53
2022/03/05 03:20:11;;;;;;;;;;;;;;;20.22;44.43;101919.53;7281429;19;151918;-53
2022/03/05 03:22:38;;;;;;;;;;;;;;;20.20;44.57;101917.03;7282330;19;152808;-52
2022/03/05 03:25:05;;;;;;;;;;;;;;;20.18;44.41;101915.59;7280329;19;155019;-53
2022/03/05 03:27:32;;;;;;;;;;;;;;;20.16;44.47;101918.72;7283309;19;151928;-53
2022/03/05 03:29:58;;;;;;;;;;;;;;;20.15;44.98;101918.97;7288327;19;152773;-54
2022/03/05 03:32:25;;;;;;;;;;;;;;;20.12;44.93;101922.38;7283380;19;152117;-53
2022/03/05 03:34:52;;;;;;;;;;;;;;;20.10;45.08;101922.63;7282061;19;152636;-53
2022/03/05 03:37:18;;;;;;;;;;;;;;;20.09;45.04;101917.28;7275514;19;153710;-53
2022/03/05 03:39:45;;;;;;;;;;;;;;;20.08;44.74;101922.06;7283416;19;151888;-53
2022/03/05 03:42:12;;;;;;;;;;;;;;;20.06;44.68;101915.91;7279553;19;153268;-53
2022/03/05 03:44:38;;;;;;;;;;;;;;;20.04;45.11;101926.56;7280306;19;154241;-54
2022/03/05 03:47:06;;;;;;;;;;;;;;;20.03;44.96;101924.06;7282040;19;152270;-53
2022/03/05 03:49:33;;;;;;;;;;;;;;;20.00;45.22;101922.63;7280575;19;154510;-53
2022/03/05 03:52:00;;;;;;;;;;;;;;;19.99;44.91;101920.94;7287549;19;152343;-53
2022/03/05 03:54:27;;;;;;;;;;;;;;;19.97;44.97;101932.47;7282254;19;152680;-53
2022/03/05 03:56:53;;;;;;;;;;;;;;;19.95;45.38;101917.88;7277733;19;154000;-54
2022/03/05 03:59:20;;;;;;;;;;;;;;;19.94;45.41;101920.97;7279890;19;151871;-53
2022/03/05 04:01:47;;;;;;;;;;;;;;;19.93;45.37;101917.31;7281680;19;153877;-52
2022/03/05 04:04:14;;;;;;;;;;;;;;;19.92;45.49;101923.19;7280921;19;154874;-52
2022/03/05 04:09:16;;;;;;;;;;;;;;;19.88;45.26;101922.94;7282471;19;152925;-52
2022/03/05 04:11:43;;;;;;;;;;;;;;;19.89;45.15;101921.81;7285053;19;153855;-53
2022/03/05 04:14:09;;;;;;;;;;;;;;;19.86;45.30;101927.13;7281807;19;153206;-53
2022/03/05 04:16:36;;;;;;;;;;;;;;;19.82;45.55;101924.03;7277911;19;153838;-52
2022/03/05 04:19:03;;;;;;;;;;;;;;;19.81;45.29;101918.69;7282016;19;151840;-52
2022/03/05 04:21:29;;;;;;;;;;;;;;;19.80;45.44;101928.25;7281018;19;152256;-52
2022/03/05 04:23:57;;;;;;;;;;;;;;;19.79;45.25;101926.56;7277300;19;152634;-53
2022/03/05 04:26:24;;;;;;;;;;;;;;;19.76;45.67;101913.94;7278485;19;152250;-53
2022/03/05 04:28:51;;;;;;;;;;;;;;;19.75;45.22;101928.25;7281609;19;152983;-52
2022/03/05 04:31:18;;;;;;;;;;;;;;;19.72;45.44;101929.63;7280655;19;154018;-52
2022/03/05 04:33:44;;;;;;;;;;;;;;;19.72;45.74;101928.78;7286436;19;151676;-53
2022/03/05 04:36:11;;;;;;;;;;;;;;;19.71;45.91;101933.59;7278669;19;154296;-53
2022/03/05 04:38:38;;;;;;;;;;;;;;;19.68;45.71;101928.50;7279476;19;151614;-53
2022/03/05 04:41:05;;;;;;;;;;;;;;;19.67;45.37;101929.63;7280264;19;151932;-53
2022/03/05 04:43:32;;;;;;;;;;;;;;;19.64;45.46;101927.41;7278505;19;153359;-54
2022/03/05 04:45:58;;;;;;;;;;;;;;;19.62;45.61;101935.25;7280234;19;152566;-53
2022/03/05 04:48:25;;;;;;;;;;;;;;;19.63;45.95;101933.25;7281142;19;153187;-53
2022/03/05 04:50:52;;;;;;;;;;;;;;;19.60;45.64;101934.69;7279463;19;154007;-52
2022/03/05 04:53:21;;;;;;;;;;;;;;;19.59;45.95;101946.16;7277155;19;151942;-53
2022/03/05 04:55:48;;;;;;;;;;;;;;;19.59;45.79;101935.78;7285204;19;152905;-53
2022/03/05 04:58:15;;;;;;;;;;;;;;;19.59;45.64;101940.56;7280020;19;151621;-53
2022/03/05 05:00:42;;;;;;;;;;;;;;;19.56;46.17;101941.13;7278718;19;152107;-53
2022/03/05 05:03:09;;;;;;;;;;;;;;;19.54;46.17;101933.81;7279388;19;154166;-53
2022/03/05 05:05:36;;;;;;;;;;;;;;;19.52;46.30;101933.28;7280323;19;152192;-53
2022/03/05 05:08:03;;;;;;;;;;;;;;;19.49;46.12;101941.38;7278600;19;152660;-53
2022/03/05 05:10:30;;;;;;;;;;;;;;;19.51;45.97;101939.16;7276754;19;153284;-52
2022/03/05 05:12:57;;;;;;;;;;;;;;;19.47;46.35;101933.25;7280341;19;151861;-54
2022/03/05 05:15:24;;;;;;;;;;;;;;;19.46;46.42;101939.13;7279835;19;153064;-52
2022/03/05 05:17:51;;;;;;;;;;;;;;;19.45;46.47;101934.63;7284065;19;153653;-53
2022/03/05 05:20:18;;;;;;;;;;;;;;;19.45;46.40;101934.63;7277749;19;153729;-53
2022/03/05 05:22:47;;;;;;;;;;;;;;;19.44;46.25;101941.38;7278572;19;154212;-53
2022/03/05 05:25:14;;;;;;;;;;;;;;;19.41;46.03;101948.34;7279517;19;152194;-53
2022/03/05 05:27:41;;;;;;;;;;;;;;;19.42;46.36;101943.59;7280290;19;153494;-53
2022/03/05 05:30:08;;;;;;;;;;;;;;;19.39;46.46;101950.59;7275238;19;153566;-53
2022/03/05 05:32:35;;;;;;;;;;;;;;;19.38;46.35;101951.72;7279668;19;151846;-53
2022/03/05 05:35:02;;;;;;;;;;;;;;;19.37;46.27;101954.78;7275150;19;153317;-55
2022/03/05 05:37:29;;;;;;;;;;;;;;;19.36;46.50;101953.09;7274178;19;154007;-53
2022/03/05 05:39:56;;;;;;;;;;;;;;;19.34;46.42;101958.13;7286421;19;151746;-53
2022/03/05 05:42:23;;;;;;;;;;;;;;;19.36;46.52;101964.28;7277240;19;153461;-53
2022/03/05 05:44:49;;;;;;;;;;;;;;;19.34;46.37;101960.94;7279539;19;151784;-54
2022/03/05 05:47:16;;;;;;;;;;;;;;;19.32;46.77;101968.78;7278362;19;154032;-52
2022/03/05 05:49:43;;;;;;;;;;;;;;;19.30;46.37;101962.63;7276552;19;153665;-53
2022/03/05 05:52:10;;;;;;;;;;;;;;;19.28;46.53;101962.88;7275533;19;151696;-53
2022/03/05 05:54:37;;;;;;;;;;;;;;;19.26;46.53;101962.28;7278989;19;153313;-53
2022/03/05 05:57:04;;;;;;;;;;;;;;;19.24;46.54;101969.31;7275070;19;152672;-53
2022/03/05 05:59:31;;;;;;;;;;;;;;;19.22;46.85;101966.78;7285950;19;151671;-54
2022/03/05 06:01:58;;;;;;;;;;;;;;;19.23;46.82;101967.63;7277785;19;153325;-53
2022/03/05 06:04:25;;;;;;;;;;;;;;;19.20;46.73;101966.22;7278711;19;151716;-52
2022/03/05 06:06:52;;;;;;;;;;;;;;;19.19;46.68;101975.72;7275905;19;152860;-53
2022/03/05 06:09:19;;;;;;;;;;;;;;;19.19;46.58;101975.72;7275377;19;152082;-53
2022/03/05 06:11:46;;;;;;;;;;;;;;;19.17;46.93;101971.53;7277669;19;151832;-53
2022/03/05 06:14:13;;;;;;;;;;;;;;;19.17;46.62;101972.34;7278652;19;154713;-53
2022/03/05 06:16:39;;;;;;;;;;;;;;;19.15;46.95;101973.75;7276309;19;155222;-54
2022/03/05 06:19:08;;;;;;;;;;;;;;;19.14;46.74;101978.50;7278798;19;151767;-53
2022/03/05 06:21:35;;;;;;;;;;;;;;;19.12;47.00;101966.75;7284660;19;152949;-52
2022/03/05 06:24:01;;;;;;;;;;;;;;;19.11;46.74;101973.47;7276462;19;151951;-53
2022/03/05 06:26:31;;;;;;;;;;;;;;;19.09;46.78;101986.88;7276433;19;152882;-53
2022/03/05 06:28:58;;;;;;;;;;;;;;;19.09;46.96;101986.88;7273362;19;153978;-53
2022/03/05 06:31:25;;;;;;;;;;;;;;;19.09;46.99;101984.09;7278000;19;151571;-53
2022/03/05 06:33:51;;;;;;;;;;;;;;;19.07;47.03;101978.78;7277803;19;153086;-53
2022/03/05 06:36:18;;;;;;;;;;;;;;;19.05;47.34;101985.75;7274663;19;152662;-53
2022/03/05 06:38:45;;;;;;;;;;;;;;;19.05;47.42;101986.59;7272212;19;154323;-53
2022/03/05 06:41:12;;;;;;;;;;;;;;;19.04;47.37;101984.91;7277469;19;152640;-53
2022/03/05 06:43:38;;;;;;;;;;;;;;;19.04;47.44;101986.88;7281969;19;153832;-53
2022/03/05 06:46:05;;;;;;;;;;;;;;;19.02;47.59;101989.13;7278394;19;152796;-52
2022/03/05 06:48:32;;;;;;;;;;;;;;;19.02;47.30;101997.50;7281213;19;153677;-54
2022/03/05 06:50:58;;;;;;;;;;;;;;;19.01;47.59;101993.88;7283507;19;151568;-53
2022/03/05 06:53:25;;;;;;;;;;;;;;;18.99;47.40;101998.88;7279886;19;152763;-52
2022/03/05 06:55:52;;;;;;;;;;;;;;;18.98;47.44;102005.63;7283277;19;153756;-53
2022/03/05 06:58:18;;;;;;;;;;;;;;;18.97;47.42;102003.94;7282705;19;151745;-53
2022/03/05 07:00:45;;;;;;;;;;;;;;;19.03;47.19;102008.44;7283428;19;152885;-53
2022/03/05 07:03:15;;;;;;;;;;;;;;;19.07;47.42;102020.81;7280713;19;153030;-54
2022/03/05 07:05:42;;;;;;;;;;;;;;;19.11;48.02;102007.09;7291155;19;151608;-53
2022/03/05 07:08:09;;;;;;;;;;;;;;;19.18;47.88;102015.22;7280040;19;153400;-53
2022/03/05 07:10:35;;;;;;;;;;;;;;;19.21;47.85;102028.69;7283003;19;153079;-53
2022/03/05 07:13:10;;;;;;;;;;;;;;;19.26;47.60;102021.13;7284053;19;153377;-53
2022/03/05 07:15:41;;;;;;;;;;;;;;;19.30;47.80;102027.91;7281500;19;153630;-52
2022/03/05 07:18:08;;;;;;;;;;;;;;;19.35;48.35;102027.91;7280938;19;152199;-52
2022/03/05 07:20:35;;;;;;;;;;;;;;;19.40;48.26;102033.53;7281267;19;153305;-52
2022/03/05 07:23:04;;;;;;;;;;;;;;;19.46;48.15;102037.22;7279932;19;153637;-53
2022/03/05 07:25:36;;;;;;;;;;;;;;;19.51;48.00;102035.28;7283583;19;151742;-53
2022/03/05 07:28:04;;;;;;;;;;;;;;;19.57;47.73;102032.50;7288342;19;154093;-52
2022/03/05 07:30:31;;;;;;;;;;;;;;;19.63;47.89;102040.66;7282250;19;151655;-52
2022/03/05 07:32:58;;;;;;;;;;;;;;;19.68;47.85;102043.47;7281743;19;153765;-53
2022/03/05 07:35:24;;;;;;;;;;;;;;;19.74;47.67;102039.56;7282186;19;154165;-52
2022/03/05 07:37:51;;;;;;;;;;;;;;;19.80;47.50;102040.44;7282002;19;152207;-53
2022/03/05 07:40:19;;;;;;;;;;;;;;;19.86;47.85;102051.38;7282869;19;154416;-54
2022/03/05 07:42:45;;;;;;;;;;;;;;;19.91;47.36;102048.56;7280751;19;154244;-53
2022/03/05 07:45:12;;;;;;;;;;;;;;;19.97;47.51;102041.88;7283152;19;151545;-53
2022/03/05 07:47:39;;;;;;;;;;;;;;;20.04;47.48;102055.59;7282509;19;151914;-53
2022/03/05 07:50:06;;;;;;;;;;;;;;;20.10;47.31;102043.28;7289145;19;153820;-52
2022/03/05 07:52:32;;;;;;;;;;;;;;;20.16;46.87;102052.56;7279715;19;153287;-54
2022/03/05 07:54:59;;;;;;;;;;;;;;;20.22;46.73;102057.03;7278776;19;153536;-53
2022/03/05 07:57:25;;;;;;;;;;;;;;;20.26;46.82;102059.00;7279478;19;151742;-53
2022/03/05 07:59:52;;;;;;;;;;;;;;;20.32;46.83;102063.53;7279807;19;153121;-53
2022/03/05 08:02:39;;;;;;;;;;;;;;;20.39;46.57;102057.66;7280305;19;154702;-52
2022/03/05 08:05:06;;;;;;;;;;;;;;;20.43;46.53;102064.38;7279278;19;151918;-53
2022/03/05 08:07:33;;;;;;;;;;;;;;;20.49;46.92;102063.25;7281868;19;151664;-53
2022/03/05 08:09:59;;;;;;;;;;;;;;;20.53;46.86;102070.00;7288068;19;153462;-53
2022/03/05 08:12:27;;;;;;;;;;;;;;;20.59;46.69;102068.00;7280823;19;152703;-52
2022/03/05 08:14:53;;;;;;;;;;;;;;;20.64;46.39;102068.88;7278726;19;153448;-52
2022/03/05 08:17:20;;;;;;;;;;;;;;;20.67;46.56;102065.47;7281152;19;151715;-53
2022/03/05 08:19:46;;;;;;;;;;;;;;;20.69;46.60;102071.66;7281990;19;153610;-53
2022/03/05 08:22:19;;;;;;;;;;;;;;;20.72;46.19;102071.09;7279463;19;153723;-53
2022/03/05 08:24:46;;;;;;;;;;;;;;;20.74;46.27;102062.41;7280178;19;152062;-52
2022/03/05 08:27:13;;;;;;;;;;;;;;;20.77;45.93;102073.91;7280665;19;152866;-53
2022/03/05 08:29:39;;;;;;;;;;;;;;;20.79;46.14;102065.22;7281131;19;153591;-53
2022/03/05 08:32:07;;;;;;;;;;;;;;;20.80;46.17;102070.53;7289149;19;151839;-55
2022/03/05 08:34:34;;;;;;;;;;;;;;;20.81;45.72;102066.59;7278908;19;153332;-53
2022/03/05 08:37:00;;;;;;;;;;;;;;;20.83;45.51;102069.13;7280653;19;151764;-53
2022/03/05 08:39:28;;;;;;;;;;;;;;;20.84;45.65;102071.66;7278915;19;153202;-53
2022/03/05 08:41:55;;;;;;;;;;;;;;;20.85;45.42;102066.84;7277820;19;153368;-54
2022/03/05 08:44:21;;;;;;;;;;;;;;;20.84;46.09;102071.66;7278774;19;152131;-53
2022/03/05 08:46:48;;;;;;;;;;;;;;;20.84;45.58;102062.38;7281883;19;153265;-54
2022/03/05 08:49:15;;;;;;;;;;;;;;;20.85;45.78;102062.09;7277434;19;153307;-53
2022/03/05 08:51:43;;;;;;;;;;;;;;;20.85;45.69;102059.28;7278589;19;152008;-53
2022/03/05 08:54:09;;;;;;;;;;;;;;;20.85;45.90;102061.25;7287491;19;152696;-53
2022/03/05 08:56:36;;;;;;;;;;;;;;;20.85;45.92;102062.09;7281142;19;152222;-53
2022/03/05 08:59:03;;;;;;;;;;;;;;;20.86;45.89;102062.94;7276032;19;153595;-53
2022/03/05 09:01:29;;;;;;;;;;;;;;;20.86;45.85;102071.34;7280034;19;153916;-53
2022/03/05 09:03:56;;;;;;;;;;;;;;;20.85;45.85;102073.31;7280009;19;152093;-53
2022/03/05 09:06:25;;;;;;;;;;;;;;;20.85;45.89;102090.19;7280918;19;152840;-53
2022/03/05 09:08:52;;;;;;;;;;;;;;;20.84;45.85;102082.06;7277855;19;153210;-53
2022/03/05 09:11:19;;;;;;;;;;;;;;;20.83;45.46;102081.22;7278471;19;151812;-52
2022/03/05 09:13:45;;;;;;;;;;;;;;;20.83;45.72;102078.41;7280670;19;152740;-53
2022/03/05 09:16:12;;;;;;;;;;;;;;;20.83;45.79;102089.63;7286134;19;153803;-53
2022/03/05 09:18:39;;;;;;;;;;;;;;;20.84;45.54;102082.91;7279162;19;153070;-53
2022/03/05 09:21:05;;;;;;;;;;;;;;;20.82;45.23;102078.66;7277778;19;153439;-53
2022/03/05 09:23:32;;;;;;;;;;;;;;;20.84;44.97;102085.72;7279296;19;151881;-53
2022/03/05 09:25:59;;;;;;;;;;;;;;;20.84;45.40;102087.66;7281008;19;153122;-53
2022/03/05 09:28:26;;;;;;;;;;;;;;;20.81;45.04;102089.06;7279128;19;154366;-53
2022/03/05 09:30:52;;;;;;;;;;;;;;;20.80;45.35;102097.78;7277763;19;151949;-53
2022/03/05 09:33:22;;;;;;;;;;;;;;;20.78;45.44;102083.19;7278296;19;153121;-53
2022/03/05 09:35:50;;;;;;;;;;;;;;;20.75;45.51;102087.41;7276507;19;156089;-52
2022/03/05 09:38:17;;;;;;;;;;;;;;;20.76;45.45;102085.41;7283192;19;151816;-53
2022/03/05 09:40:44;;;;;;;;;;;;;;;20.74;45.42;102087.69;7277569;19;153876;-53
2022/03/05 09:43:11;;;;;;;;;;;;;;;20.73;45.59;102098.06;7277003;19;152027;-53
2022/03/05 09:45:38;;;;;;;;;;;;;;;20.72;45.79;102092.72;7279990;19;152611;-53
2022/03/05 09:48:05;;;;;;;;;;;;;;;20.70;45.51;102095.81;7276849;19;153799;-53
2022/03/05 09:50:32;;;;;;;;;;;;;;;20.68;45.59;102098.06;7279616;19;151898;-53
2022/03/05 09:52:59;;;;;;;;;;;;;;;20.65;45.62;102093.03;7275300;19;153152;-53
2022/03/05 09:55:26;;;;;;;;;;;;;;;20.65;45.63;102092.19;7274816;19;154002;-52
2022/03/05 09:57:53;;;;;;;;;;;;;;;20.63;45.29;102103.69;7279041;19;151736;-53
2022/03/05 10:00:20;;;;;;;;;;;;;;;20.62;45.25;102099.22;7283858;19;153321;-53
2022/03/05 10:02:47;;;;;;;;;;;;;;;20.59;45.52;102091.31;7277031;19;151744;-53
2022/03/05 10:05:15;;;;;;;;;;;;;;;20.59;45.11;102102.56;7276697;19;152918;-53
2022/03/05 10:07:51;;;;;;;;;;;;;;;20.58;44.96;102100.88;7278132;19;154175;-52
2022/03/05 10:10:18;;;;;;;;;;;;;;;20.61;45.15;102103.13;7277067;19;151623;-53
2022/03/05 10:12:45;;;;;;;;;;;;;;;20.63;45.05;102108.44;7278342;19;152778;-55
2022/03/05 10:15:13;;;;;;;;;;;;;;;20.66;45.30;102103.13;7274889;19;154468;-55
2022/03/05 10:17:49;;;;;;;;;;;;;;;20.69;45.14;102107.34;7278586;19;151958;-53
2022/03/05 10:20:16;;;;;;;;;;;;;;;20.71;45.37;102108.75;7283692;19;152673;-53
2022/03/05 10:22:52;;;;;;;;;;;;;;;20.74;45.44;102110.16;7281124;19;152043;-53
2022/03/05 10:25:27;;;;;;;;;;;;;;;20.77;44.96;102096.38;7282969;19;153190;-53
2022/03/05 10:27:58;;;;;;;;;;;;;;;20.80;45.21;102104.22;7281741;19;153939;-53
2022/03/05 10:30:29;;;;;;;;;;;;;;;20.84;45.23;102093.28;7284160;19;152430;-52
2022/03/05 10:32:56;;;;;;;;;;;;;;;20.89;45.23;102090.47;7285390;19;152801;-53
2022/03/05 10:35:23;;;;;;;;;;;;;;;20.91;44.24;102092.97;7280760;19;153242;-53
2022/03/05 10:37:52;;;;;;;;;;;;;;;20.70;39.25;102109.03;7284243;19;151789;-53
2022/03/05 10:40:25;;;;;;;;;;;;;;;20.56;38.74;102105.94;7281912;19;153331;-52
2022/03/05 10:42:52;;;;;;;;;;;;;;;20.67;39.05;102106.78;7288732;19;153834;-53
2022/03/05 10:45:19;;;;;;;;;;;;;;;20.53;38.88;102112.13;7281738;19;153098;-54
2022/03/05 10:47:46;;;;;;;;;;;;;;;20.44;38.06;102105.38;7283022;19;153061;-53
2022/03/05 10:50:29;;;;;;;;;;;;;;;20.54;38.57;102108.16;7284712;19;151844;-53
2022/03/05 10:53:01;;;;;;;;;;;;;;;20.66;39.04;102105.94;7282143;19;153459;-53
2022/03/05 10:55:29;;;;;;;;;;;;;;;20.73;39.29;102119.69;7282738;19;153437;-53
2022/03/05 10:57:57;;;;;;;;;;;;;;;20.77;39.43;102116.03;7284055;19;151915;-53
2022/03/05 11:00:24;;;;;;;;;;;;;;;20.82;39.74;102118.84;7278688;19;153179;-53
2022/03/05 11:02:51;;;;;;;;;;;;;;;20.88;39.50;102108.44;7280058;19;153513;-52
2022/03/05 11:05:18;;;;;;;;;;;;;;;20.92;39.84;102112.38;7292409;19;152442;-53
2022/03/05 11:07:47;;;;;;;;;;;;;;;20.97;39.87;102118.00;7283052;19;153463;-53
2022/03/05 11:10:14;;;;;;;;;;;;;;;21.03;40.07;102113.22;7281161;19;152135;-52
2022/03/05 11:12:41;;;;;;;;;;;;;;;21.06;40.35;102116.28;7281154;19;152915;-53
2022/03/05 11:15:08;;;;;;;;;;;;;;;21.11;39.95;102127.53;7281356;19;153504;-53
2022/03/05 11:17:35;;;;;;;;;;;;;;;21.16;40.36;102115.47;7283213;19;151825;-53
2022/03/05 11:20:03;;;;;;;;;;;;;;;21.19;39.96;102124.16;7282180;19;153146;-53
2022/03/05 11:22:31;;;;;;;;;;;;;;;21.23;40.04;102121.63;7281023;19;153275;-53
2022/03/05 11:24:58;;;;;;;;;;;;;;;21.26;40.20;102127.50;7281715;19;151947;-54
2022/03/05 11:27:25;;;;;;;;;;;;;;;21.28;40.15;102127.22;7287499;19;153512;-53
2022/03/05 11:29:51;;;;;;;;;;;;;;;21.30;40.00;102128.63;7282286;19;151918;-53
2022/03/05 11:32:18;;;;;;;;;;;;;;;21.34;39.98;102130.88;7282560;19;152611;-54
2022/03/05 11:34:48;;;;;;;;;;;;;;;21.38;40.58;102127.22;7280137;19;154247;-53
2022/03/05 11:37:16;;;;;;;;;;;;;;;21.40;41.49;102132.53;7281605;19;151910;-56
2022/03/05 11:39:43;;;;;;;;;;;;;;;21.46;41.75;102135.06;7280578;19;152644;-53
2022/03/05 11:42:09;;;;;;;;;;;;;;;21.49;41.53;102136.44;7281378;19;153624;-53
2022/03/05 11:44:40;;;;;;;;;;;;;;;21.44;41.60;102137.28;7283915;19;151755;-54
2022/03/05 11:47:17;;;;;;;;;;;;;;;21.45;41.37;102140.97;7280291;19;153828;-54
2022/03/05 11:49:53;;;;;;;;;;;;;;;21.43;41.17;102134.78;7287003;19;154221;-54
2022/03/05 11:52:19;;;;;;;;;;;;;;;21.44;41.34;102139.28;7281631;19;153305;-53
2022/03/05 11:54:56;;;;;;;;;;;;;;;21.44;41.11;102142.91;7279465;19;153852;-53
2022/03/05 11:57:22;;;;;;;;;;;;;;;21.43;41.02;102131.97;7280748;19;151956;-53
2022/03/05 11:59:51;;;;;;;;;;;;;;;21.45;41.02;102135.34;7278006;19;152814;-53
2022/03/05 12:02:38;;;;;;;;;;;;;;;21.44;41.05;102139.28;7279678;19;153934;-52
2022/03/05 12:05:05;;;;;;;;;;;;;;;21.43;40.55;102129.16;7280125;19;152009;-53
2022/03/05 12:07:35;;;;;;;;;;;;;;;21.42;40.54;102133.94;7281197;19;153123;-53
2022/03/05 12:10:11;;;;;;;;;;;;;;;21.42;40.50;102128.31;7281501;19;154076;-54
2022/03/05 12:12:47;;;;;;;;;;;;;;;21.42;40.50;102125.50;7290522;19;151958;-52
2022/03/05 12:15:13;;;;;;;;;;;;;;;21.42;40.54;102133.94;7281397;19;154300;-54
2022/03/05 12:17:41;;;;;;;;;;;;;;;21.41;40.92;102142.66;7282713;19;151660;-53
2022/03/05 12:20:10;;;;;;;;;;;;;;;21.41;40.91;102134.22;7277545;19;153121;-53
2022/03/05 12:22:45;;;;;;;;;;;;;;;21.39;41.45;102134.53;7277631;19;152400;-53
2022/03/05 12:25:11;;;;;;;;;;;;;;;21.35;41.08;102135.38;7279937;19;152072;-53
2022/03/05 12:27:43;;;;;;;;;;;;;;;21.36;41.39;102137.03;7280770;19;153355;-53
2022/03/05 12:30:11;;;;;;;;;;;;;;;21.32;41.72;102121.88;7280247;19;154282;-52
2022/03/05 12:32:41;;;;;;;;;;;;;;;21.28;41.75;102122.47;7287794;19;151946;-53